Time;durP1;ratioP1;P1;durP2;ratioP2;P2;SDS_P1;SDS_P2;PMS_P1;PMS_P2;Temp;Humidity;BMP_temperature;BMP_pressure;BME280_temperature;BME280_humidity;BME280_pressure;Samples;Min_cycle;Max_cycle;Signal;HPM_P1;HPM_P2
2022/07/24 00:01:29;;;;;;;7.82;6.75;;;21.10;99.90;;;;;;5088324;28;20430;-72
2022/07/24 00:03:54;;;;;;;6.88;6.10;;;21.00;99.90;;;;;;5085596;28;20415;-72
2022/07/24 00:06:20;;;;;;;8.95;7.00;;;21.10;99.90;;;;;;5087165;28;20032;-74
2022/07/24 00:08:46;;;;;;;7.53;6.75;;;21.00;99.90;;;;;;5084906;28;20384;-74
2022/07/24 00:11:12;;;;;;;9.00;7.05;;;21.10;99.90;;;;;;5085605;28;20081;-74
2022/07/24 00:13:39;;;;;;;7.38;6.68;;;21.00;99.90;;;;;;5088556;28;20078;-74
2022/07/24 00:16:07;;;;;;;7.60;6.90;;;21.00;99.90;;;;;;5086132;28;20408;-74
2022/07/24 00:18:32;;;;;;;10.00;7.90;;;21.00;99.90;;;;;;5081513;28;20039;-74
2022/07/24 00:20:58;;;;;;;11.35;7.50;;;21.00;99.90;;;;;;5085277;28;20477;-74
2022/07/24 00:23:24;;;;;;;7.80;7.07;;;20.90;99.90;;;;;;5090514;28;20051;-74
2022/07/24 00:25:51;;;;;;;9.43;6.47;;;20.90;99.90;;;;;;5084664;28;20020;-74
2022/07/24 00:28:17;;;;;;;9.07;6.90;;;20.90;99.90;;;;;;5082470;28;20036;-73
2022/07/24 00:30:43;;;;;;;8.90;6.72;;;20.90;99.90;;;;;;5087931;28;20089;-74
2022/07/24 00:33:09;;;;;;;8.55;6.53;;;20.90;99.90;;;;;;5090795;28;20027;-74
2022/07/24 00:35:35;;;;;;;9.63;6.38;;;20.90;99.90;;;;;;5089945;28;20125;-74
2022/07/24 00:38:01;;;;;;;9.65;6.70;;;20.90;99.90;;;;;;5086202;28;20028;-74
2022/07/24 00:40:27;;;;;;;9.60;7.22;;;20.80;99.90;;;;;;5086395;28;20017;-74
2022/07/24 00:42:53;;;;;;;8.18;7.38;;;20.80;99.90;;;;;;5089652;28;20031;-74
2022/07/24 00:45:19;;;;;;;8.63;7.72;;;20.80;99.90;;;;;;5084265;28;20099;-74
2022/07/24 00:47:45;;;;;;;9.07;8.15;;;20.80;99.90;;;;;;5079208;28;20071;-74
2022/07/24 00:50:11;;;;;;;8.30;7.55;;;20.80;99.90;;;;;;5088208;28;20077;-74
2022/07/24 00:52:38;;;;;;;9.40;7.88;;;20.80;99.90;;;;;;5082511;28;20020;-74
2022/07/24 00:55:04;;;;;;;13.20;9.23;;;20.80;99.90;;;;;;5083530;28;20051;-74
2022/07/24 00:57:30;;;;;;;13.15;9.32;;;20.70;99.90;;;;;;5087497;28;20032;-73
2022/07/24 00:59:57;;;;;;;10.57;9.38;;;20.70;99.90;;;;;;5083421;28;20587;-74
2022/07/24 01:02:23;;;;;;;9.13;8.20;;;20.70;99.90;;;;;;5078523;28;20033;-74
2022/07/24 01:04:49;;;;;;;11.13;8.48;;;20.60;99.90;;;;;;5089390;28;20027;-73
2022/07/24 01:07:16;;;;;;;10.15;8.15;;;20.70;99.90;;;;;;5088512;28;20041;-73
2022/07/24 01:09:41;;;;;;;9.00;7.75;;;20.60;99.90;;;;;;5086866;28;20016;-74
2022/07/24 01:12:08;;;;;;;10.75;7.13;;;20.60;99.90;;;;;;5088078;28;20088;-74
2022/07/24 01:14:34;;;;;;;7.40;6.43;;;20.60;99.90;;;;;;5084629;28;20055;-74
2022/07/24 01:17:00;;;;;;;7.20;6.60;;;20.60;99.90;;;;;;5084928;28;20078;-74
2022/07/24 01:19:26;;;;;;;8.18;7.07;;;20.60;99.90;;;;;;5087384;28;20025;-73
2022/07/24 01:21:53;;;;;;;8.35;6.85;;;20.60;99.90;;;;;;5083834;28;20033;-73
2022/07/24 01:24:20;;;;;;;7.28;6.57;;;20.50;99.90;;;;;;5084075;28;20024;-74
2022/07/24 01:26:47;;;;;;;9.68;6.80;;;20.50;99.90;;;;;;5089721;28;20035;-74
2022/07/24 01:29:13;;;;;;;9.18;6.88;;;20.50;99.90;;;;;;5081340;28;20041;-74
2022/07/24 01:31:39;;;;;;;7.40;6.75;;;20.50;99.90;;;;;;5084612;28;20472;-72
2022/07/24 01:34:05;;;;;;;7.57;6.45;;;20.40;99.90;;;;;;5084943;28;20028;-74
2022/07/24 01:36:31;;;;;;;7.68;6.75;;;20.40;99.90;;;;;;5082163;28;20028;-74
2022/07/24 01:38:57;;;;;;;7.88;7.07;;;20.40;99.90;;;;;;5091090;28;20028;-74
2022/07/24 01:41:23;;;;;;;9.30;8.10;;;20.40;99.90;;;;;;5081019;28;20388;-74
2022/07/24 01:43:48;;;;;;;9.82;8.82;;;20.40;99.90;;;;;;5084028;28;20057;-74
2022/07/24 01:46:14;;;;;;;10.13;9.05;;;20.30;99.90;;;;;;5082584;28;20380;-73
2022/07/24 01:48:42;;;;;;;11.70;8.95;;;20.30;99.90;;;;;;5087409;28;20039;-74
2022/07/24 01:51:08;;;;;;;9.30;8.30;;;20.20;99.90;;;;;;5082699;28;20016;-74
2022/07/24 01:53:33;;;;;;;9.93;8.65;;;20.30;99.90;;;;;;5086357;28;20024;-74
2022/07/24 01:55:59;;;;;;;11.68;9.82;;;20.30;99.90;;;;;;5076282;28;20032;-74
2022/07/24 01:58:25;;;;;;;11.88;8.10;;;20.30;99.90;;;;;;5080959;28;20374;-73
2022/07/24 02:00:51;;;;;;;11.43;9.15;;;20.30;99.90;;;;;;5081505;28;20487;-71
2022/07/24 02:03:18;;;;;;;11.88;8.98;;;20.20;99.90;;;;;;5087328;28;20016;-74
2022/07/24 02:05:44;;;;;;;10.05;9.07;;;20.20;99.90;;;;;;5085525;28;20032;-74
2022/07/24 02:08:10;;;;;;;11.38;8.45;;;20.10;99.90;;;;;;5081222;28;20394;-74
2022/07/24 02:10:35;;;;;;;8.70;7.80;;;20.20;99.90;;;;;;5087000;28;20020;-74
2022/07/24 02:13:01;;;;;;;8.32;7.55;;;20.10;99.90;;;;;;5084663;28;20060;-73
2022/07/24 02:15:27;;;;;;;10.52;8.00;;;20.10;99.90;;;;;;5082170;28;20025;-73
2022/07/24 02:17:56;;;;;;;8.13;7.35;;;20.20;99.90;;;;;;5084661;28;20032;-73
2022/07/24 02:20:22;;;;;;;11.18;7.90;;;20.10;99.90;;;;;;5081246;28;20017;-73
2022/07/24 02:22:48;;;;;;;9.98;8.40;;;20.00;99.90;;;;;;5085452;28;20031;-74
2022/07/24 02:25:14;;;;;;;8.23;7.43;;;20.00;99.90;;;;;;5084137;28;20067;-74
2022/07/24 02:27:40;;;;;;;8.23;7.43;;;20.10;99.90;;;;;;5091605;28;20040;-73
2022/07/24 02:30:09;;;;;;;10.77;8.05;;;20.10;99.90;;;;;;5082560;28;20033;-73
2022/07/24 02:32:34;;;;;;;11.27;8.73;;;19.90;99.90;;;;;;5079849;28;20030;-73
2022/07/24 02:35:01;;;;;;;9.98;8.13;;;19.90;99.90;;;;;;5081586;28;20025;-72
2022/07/24 02:37:26;;;;;;;10.02;7.45;;;19.80;99.90;;;;;;5089438;28;20626;-73
2022/07/24 02:39:52;;;;;;;10.43;7.45;;;19.80;99.90;;;;;;5085408;28;20035;-73
2022/07/24 02:42:18;;;;;;;10.32;8.75;;;19.80;99.90;;;;;;5083809;28;20162;-74
2022/07/24 02:44:43;;;;;;;8.93;8.00;;;19.80;99.90;;;;;;5082194;28;20483;-74
2022/07/24 02:47:09;;;;;;;10.38;9.23;;;19.70;99.90;;;;;;5087550;28;20040;-74
2022/07/24 02:49:35;;;;;;;10.27;9.20;;;19.80;99.90;;;;;;5084576;28;20453;-73
2022/07/24 02:52:02;;;;;;;10.90;9.32;;;19.80;99.90;;;;;;5083046;28;20028;-73
2022/07/24 02:54:28;;;;;;;12.18;10.73;;;19.80;99.90;;;;;;5083144;28;20016;-73
2022/07/24 02:56:54;;;;;;;14.07;10.93;;;19.70;99.90;;;;;;5085000;28;20028;-74
2022/07/24 02:59:19;;;;;;;10.35;9.27;;;19.60;99.90;;;;;;5081312;28;20035;-73
2022/07/24 03:01:45;;;;;;;15.18;10.30;;;19.60;99.90;;;;;;5076348;28;20025;-74
2022/07/24 03:04:11;;;;;;;12.20;10.18;;;19.70;99.90;;;;;;5083688;28;20059;-73
2022/07/24 03:06:37;;;;;;;11.88;10.60;;;19.70;99.90;;;;;;5087622;28;20015;-74
2022/07/24 03:09:03;;;;;;;14.80;10.23;;;19.70;99.90;;;;;;5084171;28;20040;-73
2022/07/24 03:11:29;;;;;;;12.15;10.02;;;19.70;99.90;;;;;;5089017;28;20024;-73
2022/07/24 03:13:55;;;;;;;11.23;9.63;;;19.70;99.90;;;;;;5077984;28;20024;-74
2022/07/24 03:16:20;;;;;;;12.32;11.07;;;19.70;99.90;;;;;;5083216;28;20574;-73
2022/07/24 03:18:48;;;;;;;11.68;10.02;;;19.70;99.90;;;;;;5087443;28;20021;-73
2022/07/24 03:21:14;;;;;;;12.18;9.65;;;19.60;99.90;;;;;;5083872;28;20089;-74
2022/07/24 03:23:40;;;;;;;11.05;9.90;;;19.70;99.90;;;;;;5085345;28;20027;-72
2022/07/24 03:26:06;;;;;;;11.35;9.48;;;19.70;99.90;;;;;;5075536;28;20373;-72
2022/07/24 03:28:32;;;;;;;10.65;9.30;;;19.70;99.90;;;;;;5085696;28;20051;-73
2022/07/24 03:31:00;;;;;;;9.85;8.57;;;19.60;99.90;;;;;;5080237;28;20012;-73
2022/07/24 03:33:26;;;;;;;9.75;8.32;;;19.70;99.90;;;;;;5086909;28;20034;-74
2022/07/24 03:35:52;;;;;;;10.93;7.75;;;19.60;99.90;;;;;;5075625;28;20354;-73
2022/07/24 03:38:18;;;;;;;14.35;8.65;;;19.60;99.90;;;;;;5084249;28;20021;-73
2022/07/24 03:40:43;;;;;;;11.85;7.82;;;19.60;99.90;;;;;;5082478;28;20024;-73
2022/07/24 03:43:09;;;;;;;10.23;8.55;;;19.60;99.90;;;;;;5086905;28;20067;-73
2022/07/24 03:45:35;;;;;;;12.15;8.77;;;19.60;99.90;;;;;;5087870;28;20038;-71
2022/07/24 03:48:01;;;;;;;12.65;11.32;;;19.60;99.90;;;;;;5076472;28;20082;-73
2022/07/24 03:50:27;;;;;;;13.40;11.95;;;19.60;99.90;;;;;;5080870;28;20549;-74
2022/07/24 03:52:53;;;;;;;9.57;8.57;;;19.60;99.90;;;;;;5084142;28;20120;-73
2022/07/24 03:55:18;;;;;;;10.38;9.38;;;19.50;99.90;;;;;;5082572;28;20100;-74
2022/07/24 03:57:44;;;;;;;11.65;10.45;;;19.60;99.90;;;;;;5076938;28;20060;-73
2022/07/24 04:00:10;;;;;;;15.38;10.07;;;19.50;99.90;;;;;;5073388;28;20024;-73
2022/07/24 04:02:36;;;;;;;11.40;10.10;;;19.50;99.90;;;;;;5085894;28;20499;-73
2022/07/24 04:05:03;;;;;;;13.60;10.00;;;19.50;99.90;;;;;;5080992;28;20048;-73
2022/07/24 04:07:28;;;;;;;10.70;9.50;;;19.50;99.90;;;;;;5085538;28;20111;-73
2022/07/24 04:09:54;;;;;;;14.43;12.43;;;19.40;99.90;;;;;;5096131;28;20099;-73
2022/07/24 04:12:20;;;;;;;16.30;12.52;;;19.40;99.90;;;;;;5089216;28;20024;-74
2022/07/24 04:14:45;;;;;;;20.88;15.75;;;19.40;99.90;;;;;;5085060;28;20028;-73
2022/07/24 04:17:11;;;;;;;23.75;15.88;;;19.40;99.90;;;;;;5089100;28;20046;-73
2022/07/24 04:19:37;;;;;;;17.40;13.65;;;19.50;99.90;;;;;;5088715;28;20519;-73
2022/07/24 04:22:03;;;;;;;17.58;15.63;;;19.40;99.90;;;;;;5085488;28;20063;-73
2022/07/24 04:24:28;;;;;;;20.50;15.93;;;19.40;99.90;;;;;;5092930;28;20020;-74
2022/07/24 04:26:54;;;;;;;19.55;15.93;;;19.40;99.90;;;;;;5083833;28;22684;-73
2022/07/24 04:29:20;;;;;;;16.08;13.18;;;19.40;99.90;;;;;;5086728;28;20016;-74
2022/07/24 04:31:45;;;;;;;18.65;15.85;;;19.50;99.90;;;;;;5089897;28;20481;-73
2022/07/24 04:34:11;;;;;;;19.83;17.33;;;19.50;99.90;;;;;;5089809;28;20025;-73
2022/07/24 04:36:37;;;;;;;20.67;17.55;;;19.50;99.90;;;;;;5083873;28;20023;-74
2022/07/24 04:39:03;;;;;;;24.13;18.30;;;19.50;99.90;;;;;;5088680;28;20067;-73
2022/07/24 04:41:29;;;;;;;24.42;20.20;;;19.50;99.90;;;;;;5085871;28;20373;-73
2022/07/24 04:43:55;;;;;;;25.95;22.58;;;19.50;99.90;;;;;;5085122;28;20024;-73
2022/07/24 04:46:21;;;;;;;29.83;21.63;;;19.50;99.90;;;;;;5083217;28;20087;-73
2022/07/24 04:48:46;;;;;;;29.33;22.73;;;19.50;99.90;;;;;;5082075;28;20089;-73
2022/07/24 04:51:13;;;;;;;29.67;22.40;;;19.50;99.90;;;;;;5085892;28;20025;-74
2022/07/24 04:53:38;;;;;;;20.00;16.27;;;19.50;99.90;;;;;;5092385;28;20019;-73
2022/07/24 04:56:04;;;;;;;21.45;17.33;;;19.50;99.90;;;;;;5089378;28;20035;-73
2022/07/24 04:58:30;;;;;;;19.50;16.58;;;19.50;99.90;;;;;;5087205;28;20537;-73
2022/07/24 05:00:56;;;;;;;36.03;23.45;;;19.50;99.90;;;;;;5093784;28;20020;-73
2022/07/24 05:03:22;;;;;;;34.53;26.67;;;19.50;99.90;;;;;;5092320;28;20130;-74
2022/07/24 05:05:47;;;;;;;33.90;24.42;;;19.60;99.90;;;;;;5092661;28;20427;-73
2022/07/24 05:08:13;;;;;;;35.10;27.02;;;19.60;99.90;;;;;;5087826;28;20061;-73
2022/07/24 05:10:39;;;;;;;38.53;27.85;;;19.60;99.90;;;;;;5085953;28;20492;-74
2022/07/24 05:13:04;;;;;;;38.88;29.05;;;19.50;99.90;;;;;;5081301;28;20032;-74
2022/07/24 05:15:30;;;;;;;40.25;29.02;;;19.60;99.90;;;;;;5085103;28;20039;-74
2022/07/24 05:17:56;;;;;;;37.30;29.55;;;19.50;99.90;;;;;;5086834;28;20035;-74
2022/07/24 05:20:21;;;;;;;45.38;31.70;;;19.60;99.90;;;;;;5086164;28;20391;-73
2022/07/24 05:22:47;;;;;;;34.28;26.05;;;19.50;99.90;;;;;;5087856;28;20028;-74
2022/07/24 05:25:13;;;;;;;36.85;27.83;;;19.60;99.90;;;;;;5088308;28;20024;-73
2022/07/24 05:27:39;;;;;;;38.67;29.42;;;19.60;99.90;;;;;;5086910;28;20036;-73
2022/07/24 05:30:06;;;;;;;40.65;30.98;;;19.60;99.90;;;;;;5088791;28;20023;-73
2022/07/24 05:32:31;;;;;;;48.05;32.05;;;19.60;99.90;;;;;;5091271;28;20106;-73
2022/07/24 05:34:57;;;;;;;46.00;35.15;;;19.60;99.90;;;;;;5082678;28;20448;-73
2022/07/24 05:37:23;;;;;;;41.20;30.38;;;19.60;99.90;;;;;;5082611;28;20028;-74
2022/07/24 05:39:49;;;;;;;43.80;31.42;;;19.70;99.90;;;;;;5087436;28;20024;-73
2022/07/24 05:42:14;;;;;;;45.08;31.55;;;19.70;99.90;;;;;;5085339;28;20493;-74
2022/07/24 05:44:40;;;;;;;49.97;34.47;;;19.70;99.90;;;;;;5089019;28;20024;-74
2022/07/24 05:47:06;;;;;;;53.75;32.97;;;19.80;99.90;;;;;;5078734;28;20078;-73
2022/07/24 05:49:32;;;;;;;49.88;34.15;;;19.80;99.90;;;;;;5084627;28;20041;-73
2022/07/24 05:51:57;;;;;;;54.92;36.17;;;19.80;99.90;;;;;;5085530;28;20028;-74
2022/07/24 05:54:23;;;;;;;53.50;34.22;;;19.80;99.90;;;;;;5085228;28;20103;-74
2022/07/24 05:56:49;;;;;;;53.10;35.10;;;19.90;99.90;;;;;;5083059;28;20174;-74
2022/07/24 05:59:14;;;;;;;54.85;37.20;;;19.80;99.90;;;;;;5085119;28;20025;-74
2022/07/24 06:01:40;;;;;;;55.42;36.13;;;19.90;99.90;;;;;;5087083;28;20373;-74
2022/07/24 06:04:06;;;;;;;51.53;37.17;;;19.90;99.90;;;;;;5085524;28;20491;-74
2022/07/24 06:06:31;;;;;;;55.90;37.05;;;19.90;99.90;;;;;;5085988;28;20073;-74
2022/07/24 06:08:57;;;;;;;50.67;36.13;;;20.00;99.90;;;;;;5084618;28;20477;-74
2022/07/24 06:11:23;;;;;;;53.65;37.40;;;20.00;99.90;;;;;;5088641;28;20457;-74
2022/07/24 06:13:49;;;;;;;50.70;33.83;;;20.00;99.90;;;;;;5077841;28;20032;-74
2022/07/24 06:16:15;;;;;;;54.60;36.67;;;20.10;99.90;;;;;;5086451;28;20426;-74
2022/07/24 06:18:41;;;;;;;53.72;35.35;;;20.10;99.90;;;;;;5088470;28;20028;-74
2022/07/24 06:21:07;;;;;;;49.95;33.97;;;20.20;99.90;;;;;;5083891;28;20376;-73
2022/07/24 06:23:33;;;;;;;48.63;33.88;;;20.10;99.90;;;;;;5085980;28;20011;-74
2022/07/24 06:25:59;;;;;;;47.35;30.70;;;20.20;99.90;;;;;;5090273;28;20380;-73
2022/07/24 06:28:25;;;;;;;45.25;30.15;;;20.20;99.90;;;;;;5089960;28;20063;-74
2022/07/24 06:30:51;;;;;;;43.30;30.23;;;20.30;99.90;;;;;;5083102;28;20056;-74
2022/07/24 06:33:16;;;;;;;36.38;25.60;;;20.30;99.90;;;;;;5087839;28;20078;-74
2022/07/24 06:35:42;;;;;;;36.10;25.55;;;20.30;99.90;;;;;;5081270;28;20074;-74
2022/07/24 06:38:09;;;;;;;36.35;24.88;;;20.40;99.90;;;;;;5082612;28;20493;-74
2022/07/24 06:40:36;;;;;;;31.25;23.05;;;20.40;99.90;;;;;;5086658;28;20012;-72
2022/07/24 06:43:03;;;;;;;28.95;20.98;;;20.50;99.90;;;;;;5085871;28;20111;-74
2022/07/24 06:45:32;;;;;;;28.45;20.55;;;20.60;99.90;;;;;;5084516;28;20111;-73
2022/07/24 06:47:59;;;;;;;25.95;18.75;;;20.60;99.90;;;;;;5080221;28;20031;-74
2022/07/24 06:50:25;;;;;;;29.45;19.02;;;20.70;99.90;;;;;;5086485;28;20089;-74
2022/07/24 06:52:51;;;;;;;24.73;19.20;;;20.70;99.90;;;;;;5081990;28;20082;-75
2022/07/24 06:55:16;;;;;;;22.65;16.35;;;20.80;99.90;;;;;;5083650;28;20064;-74
2022/07/24 06:57:42;;;;;;;23.73;15.90;;;20.90;99.90;;;;;;5085373;28;20107;-74
2022/07/24 07:00:09;;;;;;;24.92;18.73;;;21.00;99.90;;;;;;5086458;28;20533;-74
2022/07/24 07:02:35;;;;;;;27.25;18.13;;;21.00;99.90;;;;;;5087726;28;20024;-75
2022/07/24 07:05:02;;;;;;;26.63;19.67;;;21.10;99.90;;;;;;5077709;28;20092;-71
2022/07/24 07:07:28;;;;;;;31.92;22.15;;;21.10;99.90;;;;;;5089599;28;20558;-74
2022/07/24 07:09:53;;;;;;;26.38;20.27;;;21.30;99.90;;;;;;5086172;28;20031;-71
2022/07/24 07:12:19;;;;;;;35.00;22.58;;;21.40;99.90;;;;;;5083930;28;20016;-74
2022/07/24 07:14:45;;;;;;;28.60;21.63;;;21.50;99.90;;;;;;5085099;28;20043;-74
2022/07/24 07:17:10;;;;;;;29.80;21.08;;;21.50;99.90;;;;;;5078317;28;20024;-73
2022/07/24 07:19:36;;;;;;;33.08;22.35;;;21.60;99.90;;;;;;5085675;28;20413;-74
2022/07/24 07:22:02;;;;;;;29.48;20.25;;;21.70;99.90;;;;;;5093822;28;20028;-73
2022/07/24 07:24:27;;;;;;;25.00;19.30;;;21.80;99.90;;;;;;5080497;28;20099;-73
2022/07/24 07:26:53;;;;;;;27.52;19.90;;;22.00;99.90;;;;;;5083036;28;20048;-79
2022/07/24 07:29:19;;;;;;;22.95;17.90;;;22.00;99.90;;;;;;5084025;28;20041;-75
2022/07/24 07:31:44;;;;;;;23.23;16.15;;;22.20;99.90;;;;;;5084203;28;20024;-74
2022/07/24 07:34:10;;;;;;;25.75;15.35;;;22.30;99.90;;;;;;5086501;28;20047;-74
2022/07/24 07:36:36;;;;;;;23.83;16.23;;;22.50;99.90;;;;;;5085771;28;20525;-75
2022/07/24 07:39:01;;;;;;;19.20;13.65;;;22.50;99.90;;;;;;5084321;28;20111;-72
2022/07/24 07:41:27;;;;;;;20.08;13.55;;;22.80;99.90;;;;;;5084430;28;20817;-74
2022/07/24 07:43:53;;;;;;;20.25;12.82;;;22.80;99.90;;;;;;5092400;28;20028;-75
2022/07/24 07:46:18;;;;;;;13.45;11.25;;;23.00;99.90;;;;;;5081108;28;20020;-75
2022/07/24 07:48:44;;;;;;;13.50;9.95;;;23.10;99.90;;;;;;5085107;28;20039;-75
2022/07/24 07:51:10;;;;;;;13.85;10.82;;;23.30;99.90;;;;;;5088055;28;20061;-73
2022/07/24 07:53:36;;;;;;;13.85;9.27;;;23.40;99.90;;;;;;5085168;28;20108;-75
2022/07/24 07:56:02;;;;;;;13.02;8.70;;;23.60;99.90;;;;;;5086900;28;20067;-73
2022/07/24 07:58:28;;;;;;;12.90;7.68;;;23.50;99.90;;;;;;5082449;28;20032;-75
2022/07/24 08:00:54;;;;;;;11.77;7.35;;;23.60;99.90;;;;;;5091212;28;20020;-75
2022/07/24 08:03:20;;;;;;;11.57;8.52;;;23.60;99.90;;;;;;5081633;28;20028;-74
2022/07/24 08:05:45;;;;;;;13.15;8.68;;;23.70;99.90;;;;;;5081712;28;20099;-75
2022/07/24 08:08:11;;;;;;;10.90;7.40;;;23.90;99.90;;;;;;5080715;28;20032;-75
2022/07/24 08:10:37;;;;;;;10.02;6.95;;;24.00;99.90;;;;;;5087208;28;20157;-76
2022/07/24 08:13:03;;;;;;;6.68;4.85;;;24.20;99.90;;;;;;5078073;28;20507;-74
2022/07/24 08:15:29;;;;;;;4.95;3.85;;;24.30;99.90;;;;;;5080253;28;20134;-74
2022/07/24 08:17:57;;;;;;;4.20;3.80;;;24.40;99.90;;;;;;5084410;28;20061;-75
2022/07/24 08:20:24;;;;;;;5.55;3.60;;;24.60;99.90;;;;;;5086002;28;20056;-75
2022/07/24 08:22:50;;;;;;;9.48;4.40;;;24.60;99.90;;;;;;5081242;28;20031;-76
2022/07/24 08:25:16;;;;;;;5.25;3.50;;;24.80;99.90;;;;;;5077173;28;20466;-71
2022/07/24 08:27:42;;;;;;;5.93;3.92;;;24.90;99.90;;;;;;5087003;28;20028;-74
2022/07/24 08:30:09;;;;;;;4.70;4.22;;;25.00;99.60;;;;;;5073623;28;20024;-72
2022/07/24 08:32:35;;;;;;;4.68;3.40;;;25.10;99.90;;;;;;5085040;28;20020;-73
2022/07/24 08:35:01;;;;;;;4.40;3.45;;;25.10;99.90;;;;;;5077178;28;20075;-75
2022/07/24 08:37:27;;;;;;;5.07;3.33;;;25.20;99.90;;;;;;5086748;28;20024;-74
2022/07/24 08:39:54;;;;;;;3.55;3.25;;;25.30;98.40;;;;;;5080522;28;20027;-73
2022/07/24 08:42:20;;;;;;;4.05;3.50;;;25.50;98.60;;;;;;5077867;28;20074;-74
2022/07/24 08:44:47;;;;;;;7.70;4.07;;;25.50;98.50;;;;;;5082646;28;20531;-73
2022/07/24 08:47:15;;;;;;;4.13;3.20;;;25.60;98.90;;;;;;5084220;28;20039;-73
2022/07/24 08:49:44;;;;;;;3.80;3.45;;;25.90;99.50;;;;;;5079890;28;20052;-73
2022/07/24 08:52:09;;;;;;;3.60;3.30;;;26.10;99.60;;;;;;5115426;27;20516;-73
2022/07/24 08:54:36;;;;;;;4.97;2.75;;;26.10;98.30;;;;;;5083044;28;20075;-73
2022/07/24 08:57:03;;;;;;;3.33;3.13;;;26.30;97.10;;;;;;5089441;28;20484;-72
2022/07/24 08:59:29;;;;;;;3.13;2.92;;;26.60;97.30;;;;;;5086277;28;20529;-74
2022/07/24 09:01:55;;;;;;;4.05;3.20;;;26.70;97.20;;;;;;5085401;28;20044;-73
2022/07/24 09:04:33;;;;;;;2.95;2.75;;;26.80;96.80;;;;;;5081965;28;20104;-73
2022/07/24 09:07:00;;;;;;;3.22;2.90;;;27.00;96.20;;;;;;5090940;28;20032;-73
2022/07/24 09:09:26;;;;;;;3.53;3.22;;;27.00;96.60;;;;;;5085511;28;20020;-73
2022/07/24 09:12:13;;;;;;;2.97;2.78;;;27.30;97.00;;;;;;5086017;28;20032;-73
2022/07/24 09:14:40;;;;;;;3.42;3.00;;;27.30;97.50;;;;;;5091208;28;20559;-73
2022/07/24 09:17:16;;;;;;;4.72;2.92;;;27.20;95.60;;;;;;5085183;28;20098;-73
2022/07/24 09:19:52;;;;;;;4.05;3.10;;;27.10;95.70;;;;;;5081874;28;20041;-73
2022/07/24 09:22:37;;;;;;;3.20;2.90;;;27.10;96.80;;;;;;5088188;28;20032;-73
2022/07/24 09:25:04;;;;;;;3.10;2.80;;;27.30;96.90;;;;;;5078069;28;20017;-73
2022/07/24 09:27:30;;;;;;;3.63;2.38;;;27.50;96.70;;;;;;5086632;28;20040;-73
2022/07/24 09:29:56;;;;;;;4.00;2.75;;;27.60;95.40;;;;;;5085953;28;20028;-72
2022/07/24 09:32:26;;;;;;;4.28;2.85;;;27.80;95.10;;;;;;5083416;28;20140;-74
2022/07/24 09:34:53;;;;;;;3.00;2.47;;;27.70;95.10;;;;;;5087578;28;20481;-72
2022/07/24 09:37:20;;;;;;;3.28;2.63;;;27.90;95.10;;;;;;5082686;28;20500;-73
2022/07/24 09:39:46;;;;;;;4.18;2.80;;;28.10;96.10;;;;;;5085621;28;20504;-72
2022/07/24 09:42:12;;;;;;;3.00;2.80;;;28.20;95.00;;;;;;5084909;28;20048;-73
2022/07/24 09:44:39;;;;;;;2.85;2.65;;;28.20;94.90;;;;;;5088035;28;20028;-73
2022/07/24 09:47:07;;;;;;;3.42;2.20;;;28.30;94.90;;;;;;5085358;28;20425;-73
2022/07/24 09:49:34;;;;;;;2.95;2.75;;;28.20;94.10;;;;;;5087778;28;20706;-72
2022/07/24 09:52:14;;;;;;;2.83;2.58;;;28.40;96.00;;;;;;5082760;28;20016;-72
2022/07/24 09:54:45;;;;;;;3.05;2.40;;;28.70;95.00;;;;;;5091274;28;20028;-73
2022/07/24 09:57:17;;;;;;;2.78;2.35;;;28.90;93.80;;;;;;5082467;28;20453;-73
2022/07/24 09:59:47;;;;;;;;;;;29.00;94.30;;;;;;5083878;28;20032;-73
2022/07/24 10:02:14;;;;;;;4.65;2.45;;;29.10;93.80;;;;;;5087772;28;19908;-73
2022/07/24 10:04:42;;;;;;;4.65;2.30;;;29.20;93.70;;;;;;5083653;28;20024;-73
2022/07/24 10:07:11;;;;;;;3.03;2.30;;;29.00;93.80;;;;;;5085168;28;20450;-74
2022/07/24 10:09:41;;;;;;;2.88;2.67;;;29.10;93.90;;;;;;5080600;28;20452;-73
2022/07/24 10:12:13;;;;;;;3.33;2.30;;;29.20;93.80;;;;;;5086409;28;20024;-73
2022/07/24 10:14:40;;;;;;;2.85;2.50;;;29.30;94.00;;;;;;5081137;28;20048;-73
2022/07/24 10:17:09;;;;;;;3.33;3.03;;;29.40;95.10;;;;;;5084811;28;20404;-73
2022/07/24 10:19:56;;;;;;;3.30;3.00;;;29.30;93.70;;;;;;5085537;28;20439;-72
2022/07/24 10:22:23;;;;;;;2.58;2.40;;;29.40;93.30;;;;;;5084729;28;20020;-73
2022/07/24 10:25:04;;;;;;;2.90;2.63;;;29.50;93.10;;;;;;5087244;28;20431;-73
2022/07/24 10:27:33;;;;;;;2.88;2.58;;;29.70;92.80;;;;;;5083163;28;20044;-73
2022/07/24 10:30:06;;;;;;;3.20;2.88;;;29.80;92.50;;;;;;5086036;28;20040;-73
2022/07/24 10:32:33;;;;;;;2.70;2.50;;;30.00;93.00;;;;;;5080724;28;20516;-73
2022/07/24 10:34:59;;;;;;;3.97;2.90;;;30.10;94.00;;;;;;5083867;28;20028;-73
2022/07/24 10:37:37;;;;;;;3.42;2.72;;;30.10;93.40;;;;;;5089017;28;20027;-74
2022/07/24 10:40:14;;;;;;;2.65;2.45;;;30.10;93.60;;;;;;5080991;28;20028;-73
2022/07/24 10:43:04;;;;;;;2.35;2.15;;;30.30;92.00;;;;;;5082111;28;20032;-73
2022/07/24 10:45:31;;;;;;;2.75;2.30;;;30.30;91.80;;;;;;5081119;28;20069;-74
2022/07/24 10:47:57;;;;;;;4.43;2.72;;;30.20;93.00;;;;;;5085584;28;20024;-74
2022/07/24 10:50:23;;;;;;;2.88;2.60;;;30.40;93.50;;;;;;5078910;28;20495;-73
2022/07/24 10:52:49;;;;;;;3.72;2.80;;;30.30;93.10;;;;;;5076294;28;20031;-74
2022/07/24 10:55:34;;;;;;;2.60;2.40;;;30.30;92.80;;;;;;5082625;28;20028;-74
2022/07/24 10:58:01;;;;;;;3.28;2.60;;;30.40;92.00;;;;;;5081553;28;20036;-74
2022/07/24 11:00:32;;;;;;;3.20;2.95;;;30.60;91.70;;;;;;5083050;28;20031;-74
2022/07/24 11:03:01;;;;;;;2.50;2.30;;;30.60;91.60;;;;;;5080626;28;20024;-74
2022/07/24 11:05:32;;;;;;;3.25;2.88;;;30.50;91.80;;;;;;5085585;28;20032;-74
2022/07/24 11:08:16;;;;;;;2.92;2.72;;;30.60;92.10;;;;;;5083281;28;20031;-74
2022/07/24 11:11:18;;;;;;;2.78;2.58;;;30.90;92.00;;;;;;5083036;28;20032;-72
2022/07/24 11:13:56;;;;;;;2.75;2.55;;;31.00;91.10;;;;;;5079758;28;20056;-73
2022/07/24 11:16:27;;;;;;;3.38;2.92;;;31.10;91.40;;;;;;5086465;28;20423;-73
2022/07/24 11:18:53;;;;;;;3.38;2.58;;;31.10;90.80;;;;;;5081602;28;20592;-73
2022/07/24 11:21:36;;;;;;;3.38;2.85;;;31.20;91.80;;;;;;5085161;28;20099;-73
2022/07/24 11:24:21;;;;;;;4.20;3.00;;;31.30;92.60;;;;;;5084493;28;20028;-73
2022/07/24 11:27:03;;;;;;;3.30;2.72;;;31.40;91.60;;;;;;5078748;28;20048;-73
2022/07/24 11:29:32;;;;;;;;;;;31.60;90.80;;;;;;5079253;28;20036;-73
2022/07/24 11:32:07;;;;;;;3.60;3.05;;;31.60;90.50;;;;;;5083543;28;19914;-74
2022/07/24 11:34:34;;;;;;;4.43;3.53;;;31.80;90.80;;;;;;5080255;28;20050;-74
2022/07/24 11:37:00;;;;;;;5.57;3.70;;;31.80;91.00;;;;;;5084351;28;20024;-73
2022/07/24 11:39:34;;;;;;;3.95;3.42;;;31.20;90.80;;;;;;5082554;28;20095;-73
2022/07/24 11:42:05;;;;;;;4.65;3.90;;;31.10;92.30;;;;;;5084766;28;20028;-74
2022/07/24 11:44:34;;;;;;;3.60;3.30;;;31.30;92.10;;;;;;5080393;28;20533;-73
2022/07/24 11:47:07;;;;;;;4.93;3.50;;;31.40;91.40;;;;;;5078735;28;20119;-74
2022/07/24 11:49:55;;;;;;;6.10;3.40;;;31.60;90.70;;;;;;5083245;28;20034;-73
2022/07/24 11:52:26;;;;;;;6.00;3.17;;;31.60;90.40;;;;;;5085997;28;20016;-75
2022/07/24 11:54:54;;;;;;;3.63;3.33;;;31.20;90.60;;;;;;5088991;28;20058;-74
2022/07/24 11:57:39;;;;;;;2.75;2.38;;;31.30;91.10;;;;;;5077701;28;20081;-75
2022/07/24 12:00:10;;;;;;;3.25;2.80;;;31.60;90.40;;;;;;5083839;28;20077;-75
2022/07/24 12:02:35;;;;;;;5.13;3.10;;;31.60;89.90;;;;;;5083378;28;20028;-75
2022/07/24 12:05:01;;;;;;;4.00;3.35;;;31.20;91.10;;;;;;5083489;28;20035;-74
2022/07/24 12:07:29;;;;;;;2.63;2.42;;;31.50;90.80;;;;;;5079229;28;20036;-74
2022/07/24 12:10:00;;;;;;;2.75;2.55;;;31.70;89.10;;;;;;5080496;28;20021;-75
2022/07/24 12:12:30;;;;;;;3.58;2.88;;;31.90;87.50;;;;;;5085261;28;20529;-74
2022/07/24 12:15:10;;;;;;;2.80;2.53;;;31.70;87.50;;;;;;5087615;28;20020;-74
2022/07/24 12:17:59;;;;;;;4.72;2.88;;;31.50;89.80;;;;;;5087553;28;20019;-74
2022/07/24 12:20:34;;;;;;;5.80;2.75;;;31.80;89.10;;;;;;5081280;28;20025;-75
2022/07/24 12:23:03;;;;;;;3.08;2.60;;;32.00;87.80;;;;;;5080971;28;20482;-74
2022/07/24 12:25:29;;;;;;;2.67;2.47;;;32.10;88.90;;;;;;5086879;28;20103;-74
2022/07/24 12:28:06;;;;;;;2.60;2.40;;;32.20;87.40;;;;;;5086084;28;20040;-74
2022/07/24 12:30:44;;;;;;;2.92;2.63;;;32.30;85.90;;;;;;5092359;28;20055;-74
2022/07/24 12:33:31;;;;;;;3.20;2.80;;;32.30;86.90;;;;;;5087903;28;20092;-75
2022/07/24 12:36:12;;;;;;;2.78;2.38;;;32.30;89.00;;;;;;5085921;28;20576;-73
2022/07/24 12:38:56;;;;;;;2.72;2.13;;;32.00;87.90;;;;;;5086375;28;20033;-75
2022/07/24 12:41:25;;;;;;;2.97;2.30;;;31.80;88.30;;;;;;5085381;28;20024;-74